Time;durP1;ratioP1;P1;durP2;ratioP2;P2;SDS_P1;SDS_P2;PMS_P1;PMS_P2;Temp;Humidity;BMP_temperature;BMP_pressure;BME280_temperature;BME280_humidity;BME280_pressure;Samples;Min_cycle;Max_cycle;Signal;HPM_P1;HPM_P2
2021/12/05 00:17:27;;;;;;;19.08;9.63;;;0.90;99.90;;;;;;5024474;28;20039;-82
2021/12/05 00:22:46;;;;;;;18.67;9.95;;;0.80;99.90;;;;;;4985777;28;20045;-82
2021/12/05 00:25:23;;;;;;;18.42;11.00;;;0.80;99.90;;;;;;5017189;28;20441;-82
2021/12/05 00:28:04;;;;;;;20.88;12.35;;;0.90;99.90;;;;;;5032492;28;20037;-81
2021/12/05 00:46:39;;;;;;;15.27;9.35;;;0.80;99.90;;;;;;5024788;28;20393;-81
2021/12/05 01:10:14;;;;;;;11.15;7.07;;;1.00;99.90;;;;;;5021207;28;20026;-82
2021/12/05 01:15:16;;;;;;;10.75;6.07;;;0.90;99.90;;;;;;5019256;28;20510;-82
2021/12/05 01:18:10;;;;;;;11.73;7.65;;;0.90;99.90;;;;;;5024434;28;20061;-82
2021/12/05 01:20:44;;;;;;;14.88;8.85;;;0.80;99.90;;;;;;5027366;28;20504;-82
2021/12/05 01:23:22;;;;;;;14.35;8.65;;;0.90;99.90;;;;;;5022794;28;20057;-82
2021/12/05 01:26:02;;;;;;;10.88;7.82;;;0.90;99.90;;;;;;5017812;28;20430;-82
2021/12/05 01:28:51;;;;;;;12.35;7.75;;;0.90;99.90;;;;;;5025820;28;20121;-82
2021/12/05 01:31:33;;;;;;;13.13;8.95;;;0.90;99.90;;;;;;5036542;28;20028;-82
2021/12/05 02:37:04;;;;;;;0.60;0.40;;;1.00;99.90;;;;;;5028969;28;20504;-82
2021/12/05 02:42:38;;;;;;;0.68;0.35;;;1.00;99.90;;;;;;5009318;28;20230;-82
2021/12/05 02:45:07;;;;;;;2.00;0.60;;;1.00;99.90;;;;;;5024846;28;20132;-81
2021/12/05 02:47:34;;;;;;;0.88;0.60;;;1.10;99.90;;;;;;5027584;28;20076;-81
2021/12/05 02:50:06;;;;;;;1.00;0.57;;;1.10;99.90;;;;;;5023703;28;20121;-82
2021/12/05 02:52:38;;;;;;;2.53;0.68;;;1.00;99.90;;;;;;5024402;28;20025;-82
2021/12/05 02:55:09;;;;;;;1.52;0.40;;;1.00;99.90;;;;;;5026194;28;20026;-82
2021/12/05 03:00:23;;;;;;;1.23;0.52;;;0.90;99.90;;;;;;5033128;28;19913;-82
2021/12/05 03:02:51;;;;;;;1.30;0.50;;;1.00;99.90;;;;;;5036378;28;20021;-82
2021/12/05 03:05:21;;;;;;;0.85;0.30;;;1.00;99.90;;;;;;5034514;28;20033;-81
2021/12/05 03:07:49;;;;;;;0.30;0.22;;;1.00;99.90;;;;;;5027611;28;20113;-81
2021/12/05 03:10:20;;;;;;;0.55;0.50;;;1.00;99.90;;;;;;5016662;28;20388;-81
2021/12/05 03:12:46;;;;;;;0.73;0.40;;;1.00;99.90;;;;;;5026200;28;20075;-81
2021/12/05 03:15:14;;;;;;;1.10;0.60;;;1.10;99.90;;;;;;5030208;28;20029;-81
2021/12/05 03:17:42;;;;;;;1.20;0.45;;;1.10;99.90;;;;;;5023661;28;20018;-81
2021/12/05 03:20:09;;;;;;;2.70;0.50;;;1.00;99.90;;;;;;5026540;28;20030;-81
2021/12/05 03:22:36;;;;;;;0.43;0.40;;;1.00;99.90;;;;;;5019151;28;20091;-81
2021/12/05 03:25:03;;;;;;;0.82;0.60;;;1.00;99.90;;;;;;5026251;28;20450;-81
2021/12/05 03:27:29;;;;;;;2.17;0.60;;;0.90;99.90;;;;;;5028933;28;20609;-82
2021/12/05 03:29:55;;;;;;;1.08;0.50;;;0.90;99.90;;;;;;5033265;28;20025;-81
2021/12/05 03:32:21;;;;;;;0.80;0.50;;;0.90;99.90;;;;;;5035864;28;20079;-82
2021/12/05 03:34:47;;;;;;;0.47;0.30;;;0.90;99.90;;;;;;5033263;28;20032;-82
2021/12/05 03:37:13;;;;;;;3.03;0.60;;;0.80;99.90;;;;;;5025735;28;20030;-82
2021/12/05 03:39:38;;;;;;;1.00;0.50;;;0.80;99.90;;;;;;5019418;28;20038;-81
2021/12/05 03:42:07;;;;;;;0.98;0.50;;;0.80;99.90;;;;;;5027405;28;20034;-82
2021/12/05 03:44:35;;;;;;;0.70;0.40;;;0.80;99.90;;;;;;5029829;28;20030;-82
2021/12/05 03:47:05;;;;;;;1.00;0.50;;;0.80;99.90;;;;;;5034006;28;20079;-81
2021/12/05 03:49:32;;;;;;;1.30;0.50;;;0.90;99.90;;;;;;5032386;28;20478;-81
2021/12/05 03:52:03;;;;;;;0.73;0.45;;;0.90;99.90;;;;;;5021645;28;20148;-82
2021/12/05 03:54:29;;;;;;;0.80;0.50;;;0.90;99.90;;;;;;5031259;28;20026;-82
2021/12/05 03:56:59;;;;;;;0.75;0.43;;;0.90;99.90;;;;;;5030855;28;20112;-81
2021/12/05 03:59:27;;;;;;;0.90;0.55;;;0.90;99.90;;;;;;5014721;28;20104;-82
2021/12/05 04:01:54;;;;;;;4.85;0.70;;;0.90;99.90;;;;;;5017384;28;20036;-82
2021/12/05 04:04:20;;;;;;;0.32;0.32;;;0.90;99.90;;;;;;5017495;28;20026;-82
2021/12/05 04:06:47;;;;;;;2.85;1.00;;;0.90;99.90;;;;;;5019403;28;20017;-82
2021/12/05 04:09:15;;;;;;;0.95;0.55;;;0.90;99.90;;;;;;5029123;28;20040;-82
2021/12/05 04:11:46;;;;;;;1.13;0.50;;;0.90;99.90;;;;;;5025663;28;20021;-82
2021/12/05 04:14:13;;;;;;;;;;;0.90;99.90;;;;;;5033112;28;20072;-82
2021/12/05 04:16:40;;;;;;;1.10;0.45;;;0.80;99.90;;;;;;5016960;28;19909;-82
2021/12/05 04:19:06;;;;;;;2.30;0.50;;;0.80;99.90;;;;;;5017811;28;20065;-82
2021/12/05 04:21:35;;;;;;;0.63;0.40;;;0.80;99.90;;;;;;5020660;28;20052;-82
2021/12/05 04:24:02;;;;;;;1.13;0.57;;;0.80;99.90;;;;;;5023828;28;20505;-82
2021/12/05 04:26:29;;;;;;;1.23;0.52;;;0.80;99.90;;;;;;5021661;28;20040;-82
2021/12/05 04:28:55;;;;;;;0.63;0.40;;;0.80;99.90;;;;;;5016168;28;20378;-82
2021/12/05 04:31:21;;;;;;;0.40;0.35;;;0.90;99.90;;;;;;5015453;28;20022;-82
2021/12/05 04:33:49;;;;;;;0.77;0.40;;;0.90;99.90;;;;;;5019048;28;20494;-82
2021/12/05 04:36:15;;;;;;;2.85;1.23;;;0.80;99.90;;;;;;5032405;28;20482;-82
2021/12/05 04:38:41;;;;;;;5.22;3.53;;;0.90;99.90;;;;;;5033249;28;20040;-82
2021/12/05 04:41:07;;;;;;;4.15;1.58;;;0.90;99.90;;;;;;5018399;28;20043;-82
2021/12/05 04:43:39;;;;;;;1.77;0.93;;;1.00;99.90;;;;;;5032017;28;20044;-82
2021/12/05 04:46:11;;;;;;;1.48;0.70;;;0.90;99.90;;;;;;5030127;28;20113;-83
2021/12/05 04:48:38;;;;;;;2.20;1.30;;;0.90;99.90;;;;;;5033865;28;20108;-81
2021/12/05 04:51:04;;;;;;;2.30;1.50;;;0.90;99.90;;;;;;5026108;28;20036;-82
2021/12/05 04:53:30;;;;;;;1.90;1.33;;;0.80;99.90;;;;;;5029582;28;20053;-82
2021/12/05 04:55:57;;;;;;;1.15;0.70;;;0.80;99.90;;;;;;5033664;28;20029;-82
2021/12/05 04:58:25;;;;;;;3.47;0.98;;;0.80;99.90;;;;;;5031356;28;20052;-82
2021/12/05 05:00:53;;;;;;;1.73;0.70;;;0.80;99.90;;;;;;5020739;28;20029;-82
2021/12/05 05:03:19;;;;;;;1.40;0.77;;;0.80;99.90;;;;;;5033101;28;20029;-82
2021/12/05 05:05:51;;;;;;;1.20;0.63;;;0.70;99.90;;;;;;5038629;28;20060;-82
2021/12/05 05:08:18;;;;;;;0.95;0.55;;;0.70;99.90;;;;;;5037299;28;20022;-82
2021/12/05 05:10:44;;;;;;;2.72;0.60;;;0.70;99.90;;;;;;5037667;28;20088;-82
2021/12/05 05:13:10;;;;;;;0.98;0.50;;;0.70;99.90;;;;;;5037317;28;20029;-82
2021/12/05 05:15:36;;;;;;;2.05;0.63;;;0.70;99.90;;;;;;5036453;28;20029;-82
2021/12/05 05:18:03;;;;;;;2.15;0.50;;;0.70;99.90;;;;;;5037927;28;20057;-82
2021/12/05 05:39:44;;;;;;;8.30;4.55;;;0.70;99.90;;;;;;5017227;28;20049;-83
2021/12/05 05:47:41;;;;;;;6.18;3.67;;;0.70;99.90;;;;;;5034706;28;20146;-84
2021/12/05 05:50:07;;;;;;;3.88;2.58;;;0.70;99.90;;;;;;5036709;28;20017;-84
2021/12/05 05:52:34;;;;;;;3.92;2.08;;;0.70;99.90;;;;;;5034525;28;20021;-83
2021/12/05 05:55:00;;;;;;;2.28;1.40;;;0.60;99.90;;;;;;5035239;28;20057;-83
2021/12/05 06:00:30;;;;;;;1.35;0.70;;;0.60;99.90;;;;;;5036717;28;20041;-82
2021/12/05 06:05:40;;;;;;;2.72;1.00;;;0.60;99.90;;;;;;5034623;28;20052;-84
2021/12/05 06:08:06;;;;;;;2.08;1.08;;;0.70;99.90;;;;;;5016465;28;20034;-84
2021/12/05 06:10:32;;;;;;;1.70;1.10;;;0.70;99.90;;;;;;5016473;28;20021;-84
2021/12/05 06:12:59;;;;;;;1.10;0.68;;;0.70;99.90;;;;;;5016397;28;20152;-83
2021/12/05 06:15:27;;;;;;;2.15;0.80;;;0.70;99.90;;;;;;5015118;28;20022;-84
2021/12/05 06:17:53;;;;;;;3.35;2.22;;;0.70;99.90;;;;;;5035086;28;20441;-84
2021/12/05 06:20:24;;;;;;;14.48;8.45;;;0.60;99.90;;;;;;5036057;28;20053;-84
2021/12/05 06:22:50;;;;;;;3.10;1.70;;;0.70;99.90;;;;;;5033226;28;20033;-83
2021/12/05 06:25:20;;;;;;;2.72;1.42;;;0.80;99.90;;;;;;5015837;28;20080;-85
2021/12/05 06:27:57;;;;;;;3.03;1.65;;;0.80;99.90;;;;;;5032467;28;20029;-83
2021/12/05 06:30:37;;;;;;;3.10;1.55;;;0.80;99.90;;;;;;5031934;28;20034;-83
2021/12/05 06:38:57;;;;;;;4.82;1.88;;;0.80;99.90;;;;;;5034312;28;20096;-81
2021/12/05 06:46:44;;;;;;;6.47;3.58;;;0.70;99.90;;;;;;5031962;28;20096;-82
2021/12/05 06:49:10;;;;;;;15.73;8.15;;;0.70;99.90;;;;;;5015830;28;20022;-81
2021/12/05 06:51:36;;;;;;;8.85;3.55;;;0.70;99.90;;;;;;5015685;28;20458;-82
2021/12/05 06:54:02;;;;;;;7.10;3.90;;;0.80;99.90;;;;;;5019986;28;20010;-81
2021/12/05 06:56:28;;;;;;;5.28;2.97;;;0.70;99.90;;;;;;5016688;28;20061;-81
2021/12/05 06:58:54;;;;;;;6.38;3.50;;;0.70;99.90;;;;;;5018477;28;20061;-82
2021/12/05 07:01:21;;;;;;;5.25;3.60;;;0.70;99.90;;;;;;5016931;28;20018;-82
2021/12/05 07:03:49;;;;;;;6.53;3.60;;;0.60;99.90;;;;;;5015438;28;20061;-81
2021/12/05 07:06:29;;;;;;;5.10;3.92;;;0.60;99.90;;;;;;5013768;28;20379;-81
2021/12/05 07:09:02;;;;;;;9.43;4.93;;;0.60;99.90;;;;;;5031518;28;20068;-81
2021/12/05 07:19:18;;;;;;;14.25;7.45;;;0.70;99.90;;;;;;5014888;28;20018;-82
2021/12/05 07:22:00;;;;;;;17.67;7.35;;;0.70;99.90;;;;;;5015239;28;20014;-82
2021/12/05 07:24:46;;;;;;;13.88;6.60;;;0.70;99.90;;;;;;5032557;28;20083;-82
2021/12/05 07:41:16;;;;;;;8.07;5.00;;;0.80;99.90;;;;;;5035591;28;20036;-83
2021/12/05 07:43:42;;;;;;;9.30;4.70;;;0.90;99.90;;;;;;5026975;28;20034;-83
2021/12/05 07:46:08;;;;;;;8.85;4.93;;;0.90;99.90;;;;;;5014731;28;20022;-83
2021/12/05 07:48:37;;;;;;;7.70;4.43;;;1.00;99.90;;;;;;5015109;28;20477;-83
2021/12/05 07:51:11;;;;;;;7.97;4.95;;;1.00;99.90;;;;;;5014842;28;20026;-83
2021/12/05 07:53:50;;;;;;;9.52;6.03;;;1.00;99.90;;;;;;5025868;28;20040;-82
2021/12/05 07:56:36;;;;;;;8.80;5.68;;;1.10;99.90;;;;;;5024471;28;20371;-82
2021/12/05 08:15:30;;;;;;;26.10;13.18;;;1.30;99.90;;;;;;5022967;28;20513;-84
2021/12/05 08:17:58;;;;;;;25.35;12.27;;;1.30;99.90;;;;;;5012673;28;20477;-83
2021/12/05 08:20:32;;;;;;;16.95;9.77;;;1.30;99.90;;;;;;5014253;28;20017;-83
2021/12/05 08:23:00;;;;;;;12.05;7.97;;;1.30;99.90;;;;;;5017195;28;20095;-83
2021/12/05 08:25:29;;;;;;;17.63;9.02;;;1.30;99.90;;;;;;5019998;28;20585;-83
2021/12/05 08:28:04;;;;;;;14.48;8.30;;;1.30;99.90;;;;;;5012423;28;20455;-82
2021/12/05 08:30:34;;;;;;;15.30;8.70;;;1.30;99.90;;;;;;5010946;28;20030;-82
2021/12/05 08:39:14;;;;;;;22.70;11.55;;;1.40;99.90;;;;;;5015023;28;20397;-85
2021/12/05 09:30:12;;;;;;;6.97;4.10;;;1.00;99.90;;;;;;5027159;28;20029;-81
2021/12/05 10:13:19;;;;;;;9.32;4.45;;;1.20;99.90;;;;;;5036157;28;20374;-80
2021/12/05 10:27:07;;;;;;;8.65;4.45;;;1.10;99.90;;;;;;5028319;28;20049;-80
2021/12/05 10:38:23;;;;;;;4.55;1.50;;;1.10;99.90;;;;;;5022726;28;20026;-80
2021/12/05 10:40:58;;;;;;;6.53;1.80;;;1.10;99.90;;;;;;5024678;28;20061;-81
2021/12/05 10:43:25;;;;;;;12.50;3.33;;;1.10;99.90;;;;;;5018963;28;20032;-81
2021/12/05 10:45:54;;;;;;;5.90;2.40;;;1.10;99.90;;;;;;5020432;28;20386;-81
2021/12/05 10:48:31;;;;;;;7.65;3.40;;;1.10;99.90;;;;;;5030043;28;20022;-79
2021/12/05 10:51:05;;;;;;;7.07;2.50;;;1.10;99.90;;;;;;5034256;28;20029;-80
2021/12/05 10:53:31;;;;;;;5.68;2.55;;;1.10;99.90;;;;;;5025912;28;20033;-79
2021/12/05 10:56:10;;;;;;;7.72;3.22;;;1.10;99.90;;;;;;5019921;28;20018;-80
2021/12/05 10:58:53;;;;;;;11.77;3.53;;;1.10;99.90;;;;;;5014106;28;20100;-79
2021/12/05 11:01:27;;;;;;;6.47;3.33;;;1.00;99.90;;;;;;5013119;28;20021;-79
2021/12/05 11:04:00;;;;;;;8.68;3.70;;;1.00;99.90;;;;;;5016372;28;20109;-80
2021/12/05 11:06:37;;;;;;;6.32;2.88;;;1.00;99.90;;;;;;5017788;28;20046;-78
2021/12/05 11:09:12;;;;;;;7.40;2.50;;;1.00;99.90;;;;;;5015622;28;20029;-78
2021/12/05 11:11:43;;;;;;;8.13;2.85;;;1.00;99.90;;;;;;5014242;28;20061;-79
2021/12/05 11:14:30;;;;;;;9.02;3.10;;;1.00;99.90;;;;;;5016922;28;20034;-79
2021/12/05 11:17:02;;;;;;;8.40;3.25;;;1.00;99.90;;;;;;5032978;28;20043;-81
2021/12/05 11:19:39;;;;;;;8.40;3.10;;;1.00;99.90;;;;;;5033991;28;20104;-82
2021/12/05 11:22:17;;;;;;;9.20;3.75;;;1.00;99.90;;;;;;4976832;28;1378294;-81
2021/12/05 11:24:52;;;;;;;9.35;3.60;;;1.00;99.90;;;;;;5016070;28;20505;-81
2021/12/05 11:27:37;;;;;;;9.20;3.00;;;1.00;99.90;;;;;;5015412;28;20033;-83
2021/12/05 11:30:19;;;;;;;12.35;4.22;;;1.00;99.90;;;;;;5014875;28;20494;-84
2021/12/05 11:32:52;;;;;;;13.25;3.50;;;1.00;99.90;;;;;;5021920;28;20486;-82
2021/12/05 11:35:18;;;;;;;8.23;3.38;;;1.00;99.90;;;;;;5020206;28;20026;-83
2021/12/05 11:38:09;;;;;;;7.10;2.80;;;1.00;99.90;;;;;;5016728;28;20036;-83
2021/12/05 11:40:46;;;;;;;6.85;2.05;;;1.10;99.90;;;;;;5015110;28;20041;-82
2021/12/05 11:43:19;;;;;;;7.70;3.30;;;1.10;99.90;;;;;;5014676;28;20137;-82
2021/12/05 11:45:54;;;;;;;6.75;2.83;;;1.10;99.90;;;;;;5014925;28;20030;-83
2021/12/05 11:48:28;;;;;;;10.07;3.65;;;1.10;99.90;;;;;;5014435;28;20026;-82
2021/12/05 11:50:55;;;;;;;6.80;3.63;;;1.10;99.90;;;;;;5014071;28;20029;-83
2021/12/05 11:53:56;;;;;;;8.20;2.25;;;1.10;99.90;;;;;;5021627;28;20104;-81
2021/12/05 11:56:39;;;;;;;2.88;1.52;;;1.20;99.90;;;;;;5005976;28;20030;-81
2021/12/05 11:59:15;;;;;;;6.25;2.00;;;1.20;99.90;;;;;;5019771;28;20030;-81
2021/12/05 12:01:48;;;;;;;5.47;1.90;;;1.20;99.90;;;;;;5018302;28;20029;-81
2021/12/05 12:04:18;;;;;;;3.33;1.10;;;1.30;99.90;;;;;;5021665;28;20033;-81
2021/12/05 12:06:46;;;;;;;3.67;1.35;;;1.30;99.90;;;;;;5015293;28;20470;-82
2021/12/05 12:09:12;;;;;;;7.90;1.80;;;1.30;99.90;;;;;;5013240;28;20028;-81
2021/12/05 12:11:37;;;;;;;5.15;1.17;;;1.30;99.90;;;;;;5013047;28;20022;-81
2021/12/05 12:14:04;;;;;;;5.38;1.33;;;1.30;99.90;;;;;;5013374;28;20034;-81
2021/12/05 12:16:33;;;;;;;5.30;1.30;;;1.30;99.90;;;;;;5030301;28;20041;-81
2021/12/05 12:19:01;;;;;;;5.10;1.30;;;1.30;99.90;;;;;;5032931;28;20456;-81
2021/12/05 12:21:41;;;;;;;4.40;1.65;;;1.30;99.90;;;;;;5025161;28;20029;-81
2021/12/05 12:24:10;;;;;;;3.35;1.50;;;1.30;99.90;;;;;;5024203;28;20037;-81
2021/12/05 12:26:37;;;;;;;8.73;2.30;;;1.30;99.90;;;;;;5014382;28;20018;-80
2021/12/05 12:29:04;;;;;;;7.50;2.42;;;1.30;99.90;;;;;;5016643;28;20041;-81
2021/12/05 12:31:34;;;;;;;10.38;2.53;;;1.30;99.90;;;;;;5023404;28;20478;-80
2021/12/05 12:34:14;;;;;;;4.60;2.00;;;1.30;99.90;;;;;;5027258;28;20028;-81
2021/12/05 12:36:43;;;;;;;6.35;2.33;;;1.30;99.90;;;;;;5022386;28;20022;-81
2021/12/05 12:39:17;;;;;;;9.05;2.88;;;1.40;99.90;;;;;;5022637;28;20049;-81
2021/12/05 12:42:02;;;;;;;6.57;2.67;;;1.30;99.90;;;;;;5022791;28;20024;-80
2021/12/05 12:44:28;;;;;;;11.65;3.22;;;1.30;99.90;;;;;;5013544;28;20549;-81
2021/12/05 12:47:01;;;;;;;7.88;3.13;;;1.30;99.90;;;;;;5013261;28;20022;-81
2021/12/05 12:49:36;;;;;;;8.68;3.20;;;1.40;99.90;;;;;;5022654;28;20029;-81
2021/12/05 12:52:08;;;;;;;12.80;5.38;;;1.40;99.90;;;;;;5024583;28;20021;-82
2021/12/05 12:54:44;;;;;;;4.85;2.25;;;1.40;99.90;;;;;;5029064;28;20063;-81
2021/12/05 12:57:24;;;;;;;4.57;1.92;;;1.40;99.90;;;;;;5012379;28;20527;-81
2021/12/05 13:00:08;;;;;;;5.15;1.92;;;1.40;99.90;;;;;;5019389;28;20037;-81
2021/12/05 13:02:55;;;;;;;26.90;15.88;;;1.40;99.90;;;;;;5025539;28;20036;-80
2021/12/05 13:11:18;;;;;;;3.47;1.40;;;1.40;99.90;;;;;;5021608;28;20037;-81
2021/12/05 13:14:02;;;;;;;4.07;1.80;;;1.40;99.90;;;;;;5023586;28;20394;-80
2021/12/05 13:16:32;;;;;;;3.80;2.10;;;1.40;99.90;;;;;;5019584;28;20129;-80
2021/12/05 13:18:59;;;;;;;4.70;2.30;;;1.40;99.90;;;;;;5016771;28;20106;-78
2021/12/05 13:21:38;;;;;;;5.95;2.70;;;1.40;99.90;;;;;;5018412;28;20044;-78
2021/12/05 13:24:20;;;;;;;6.90;2.63;;;1.30;99.90;;;;;;5031342;28;20032;-78
2021/12/05 13:26:46;;;;;;;4.32;1.95;;;1.40;99.90;;;;;;5021385;28;20500;-78
2021/12/05 13:29:19;;;;;;;3.53;1.85;;;1.40;99.90;;;;;;5017690;28;20030;-77
2021/12/05 13:31:49;;;;;;;4.47;2.42;;;1.40;99.90;;;;;;5017587;28;20053;-78
2021/12/05 13:34:34;;;;;;;5.95;3.33;;;1.40;99.90;;;;;;5017720;28;20018;-78
2021/12/05 13:37:06;;;;;;;5.85;2.53;;;1.40;99.90;;;;;;5018034;28;20401;-78
2021/12/05 13:39:40;;;;;;;7.15;3.88;;;1.50;99.90;;;;;;5025979;28;20115;-78
2021/12/05 13:42:30;;;;;;;7.20;3.30;;;1.50;99.90;;;;;;5017840;28;20595;-78
2021/12/05 13:45:09;;;;;;;7.60;3.67;;;1.50;99.90;;;;;;5017359;28;20026;-78
2021/12/05 13:47:45;;;;;;;7.00;3.03;;;1.60;99.90;;;;;;5017866;28;20022;-77
2021/12/05 13:52:59;;;;;;;9.98;4.07;;;1.50;99.90;;;;;;5022904;28;20485;-78
2021/12/05 13:55:54;;;;;;;8.38;3.95;;;1.50;99.90;;;;;;5037805;28;20104;-81
2021/12/05 13:58:28;;;;;;;7.10;3.72;;;1.50;99.90;;;;;;5019512;28;20037;-80
2021/12/05 14:01:23;;;;;;;7.80;3.85;;;1.50;99.90;;;;;;5034564;28;20512;-79
2021/12/05 14:03:52;;;;;;;6.55;3.60;;;1.50;99.90;;;;;;5036629;28;20029;-81
2021/12/05 14:06:36;;;;;;;7.65;3.92;;;1.40;99.90;;;;;;5037109;28;20071;-81
2021/12/05 14:09:30;;;;;;;7.20;3.92;;;1.40;99.90;;;;;;5036396;28;20018;-78
2021/12/05 14:12:04;;;;;;;7.43;3.50;;;1.30;99.90;;;;;;5018880;28;20026;-78
2021/12/05 14:14:30;;;;;;;9.10;3.92;;;1.30;99.90;;;;;;5015597;28;20057;-78
2021/12/05 14:16:58;;;;;;;9.07;4.13;;;1.30;99.90;;;;;;5017446;28;20022;-78
2021/12/05 14:19:29;;;;;;;18.30;6.82;;;1.30;99.90;;;;;;5017218;28;20478;-78
2021/12/05 14:21:57;;;;;;;18.05;7.63;;;1.30;99.90;;;;;;5019866;28;20021;-78
2021/12/05 14:24:26;;;;;;;21.73;8.25;;;1.30;99.90;;;;;;5025465;28;20033;-78
2021/12/05 14:26:55;;;;;;;17.70;7.03;;;1.20;99.90;;;;;;5021286;28;20021;-78
2021/12/05 14:29:24;;;;;;;15.27;6.05;;;1.20;99.90;;;;;;5021412;28;20021;-78
2021/12/05 14:31:55;;;;;;;12.77;4.90;;;1.20;99.90;;;;;;5025452;28;20021;-79
2021/12/05 14:34:21;;;;;;;;;;;1.20;99.90;;;;;;5017639;28;20390;-79
2021/12/05 14:36:58;;;;;;;10.88;6.05;;;1.20;99.90;;;;;;5016093;28;20357;-81
2021/12/05 14:39:29;;;;;;;11.70;4.85;;;1.20;99.90;;;;;;5016881;28;20104;-79
2021/12/05 14:42:04;;;;;;;10.00;4.97;;;1.20;99.90;;;;;;5027182;28;20482;-78
2021/12/05 14:44:31;;;;;;;9.60;4.40;;;1.10;99.90;;;;;;5016370;28;20096;-78
2021/12/05 14:46:59;;;;;;;6.32;3.15;;;1.10;99.90;;;;;;5032791;28;20039;-78
2021/12/05 14:49:29;;;;;;;6.90;3.53;;;1.10;99.90;;;;;;5035905;28;20036;-78
2021/12/05 14:51:55;;;;;;;10.30;4.22;;;1.10;99.90;;;;;;5035647;28;20022;-79
2021/12/05 14:54:32;;;;;;;6.78;3.28;;;1.10;99.90;;;;;;5019921;28;20018;-78
2021/12/05 14:56:58;;;;;;;5.70;3.22;;;1.00;99.90;;;;;;5017954;28;20479;-80
2021/12/05 14:59:24;;;;;;;5.85;2.90;;;1.00;99.90;;;;;;5019071;28;20109;-79
2021/12/05 15:01:57;;;;;;;6.28;2.83;;;1.00;99.90;;;;;;5015935;28;20049;-79
2021/12/05 15:04:31;;;;;;;7.05;3.17;;;1.00;99.90;;;;;;5016180;28;20018;-78
2021/12/05 15:06:57;;;;;;;8.90;3.67;;;0.90;99.90;;;;;;5015623;28;20101;-78
2021/12/05 15:09:42;;;;;;;7.25;3.35;;;0.80;99.90;;;;;;5015678;28;20041;-79
2021/12/05 15:12:18;;;;;;;7.38;3.63;;;0.80;99.90;;;;;;5016100;28;20026;-78
2021/12/05 15:14:48;;;;;;;7.57;3.40;;;0.80;99.90;;;;;;5026787;28;20471;-78
2021/12/05 15:17:17;;;;;;;4.22;2.60;;;0.80;99.90;;;;;;5017739;28;20037;-79
2021/12/05 15:19:47;;;;;;;4.10;2.10;;;0.70;99.90;;;;;;5015811;28;20033;-79
2021/12/05 15:22:15;;;;;;;6.28;2.42;;;0.70;99.90;;;;;;5015607;28;20556;-79
2021/12/05 15:24:48;;;;;;;5.00;2.20;;;0.70;99.90;;;;;;5021223;28;20097;-78
2021/12/05 15:27:17;;;;;;;4.50;2.10;;;0.70;99.90;;;;;;5021345;28;20064;-79
2021/12/05 15:29:56;;;;;;;4.25;1.95;;;0.60;99.90;;;;;;5023951;28;20560;-79
2021/12/05 15:32:28;;;;;;;5.07;2.47;;;0.60;99.90;;;;;;5018774;28;20501;-79
2021/12/05 15:34:57;;;;;;;5.40;2.20;;;0.60;99.90;;;;;;5015931;28;20053;-79
2021/12/05 15:37:24;;;;;;;5.80;2.30;;;0.60;99.90;;;;;;5015414;28;20021;-79
2021/12/05 15:39:53;;;;;;;9.77;3.05;;;0.60;99.90;;;;;;5014348;28;20061;-79
2021/12/05 15:42:28;;;;;;;6.00;3.00;;;0.60;99.90;;;;;;5015387;28;20034;-79
2021/12/05 15:44:57;;;;;;;7.60;3.15;;;0.60;99.90;;;;;;5015489;28;20030;-79
2021/12/05 15:47:28;;;;;;;11.43;4.20;;;0.60;99.90;;;;;;5020446;28;20451;-79
2021/12/05 15:50:02;;;;;;;8.65;4.40;;;0.60;99.90;;;;;;5034830;28;20553;-79
2021/12/05 15:52:39;;;;;;;6.90;3.47;;;0.60;99.90;;;;;;5033416;28;20466;-79
2021/12/05 15:55:08;;;;;;;6.25;3.63;;;0.60;99.90;;;;;;5034635;28;20030;-79
2021/12/05 15:57:38;;;;;;;7.07;3.40;;;0.50;99.90;;;;;;5021178;28;20033;-79
2021/12/05 16:00:21;;;;;;;7.20;3.65;;;0.60;99.90;;;;;;5014115;28;20091;-79
2021/12/05 16:02:48;;;;;;;6.13;3.40;;;0.50;99.90;;;;;;5012613;28;20109;-79
2021/12/05 16:05:18;;;;;;;8.23;3.90;;;0.50;99.90;;;;;;5014467;28;20088;-79
2021/12/05 16:07:43;;;;;;;7.32;3.97;;;0.50;99.90;;;;;;5012606;28;20026;-79
2021/12/05 16:10:14;;;;;;;6.13;3.58;;;0.50;99.90;;;;;;5013668;28;20296;-79
2021/12/05 16:12:43;;;;;;;6.68;4.13;;;0.50;99.90;;;;;;5012845;28;20021;-79
2021/12/05 16:15:09;;;;;;;6.25;4.10;;;0.50;99.90;;;;;;5013979;28;20034;-79
2021/12/05 16:17:35;;;;;;;8.60;4.57;;;0.50;99.90;;;;;;5014085;28;20105;-80
2021/12/05 16:20:08;;;;;;;6.47;3.83;;;0.50;99.90;;;;;;5021678;28;20032;-80
2021/12/05 16:23:03;;;;;;;7.65;3.83;;;0.50;99.90;;;;;;5030649;28;20034;-81
2021/12/05 16:25:30;;;;;;;9.10;4.03;;;0.50;99.90;;;;;;5013722;28;20033;-82
2021/12/05 16:28:01;;;;;;;6.45;3.95;;;0.50;99.90;;;;;;5031854;28;20057;-82
2021/12/05 16:30:33;;;;;;;7.20;4.18;;;0.50;99.90;;;;;;5033490;28;20028;-82
2021/12/05 16:33:01;;;;;;;6.05;3.75;;;0.40;99.90;;;;;;5033599;28;20021;-82
2021/12/05 16:35:50;;;;;;;6.53;3.65;;;0.50;99.90;;;;;;5034763;28;20370;-83
2021/12/05 16:38:20;;;;;;;5.68;3.20;;;0.40;99.90;;;;;;5031306;28;20033;-82
2021/12/05 16:40:53;;;;;;;7.75;3.50;;;0.40;99.90;;;;;;5033673;28;20061;-81
2021/12/05 16:43:20;;;;;;;7.32;3.75;;;0.40;99.90;;;;;;5032138;28;20425;-82
2021/12/05 16:45:46;;;;;;;8.68;4.15;;;0.40;99.90;;;;;;5029208;28;20076;-82
2021/12/05 16:48:16;;;;;;;6.80;4.20;;;0.40;99.90;;;;;;5013616;28;20045;-82
2021/12/05 16:50:42;;;;;;;6.35;3.72;;;0.40;99.90;;;;;;5013994;28;20022;-83
2021/12/05 16:53:10;;;;;;;6.45;3.85;;;0.40;99.90;;;;;;5019849;28;20136;-83
2021/12/05 16:55:41;;;;;;;6.53;4.00;;;0.40;99.90;;;;;;5033557;28;20029;-82
2021/12/05 16:58:14;;;;;;;6.63;4.05;;;0.40;99.90;;;;;;5031497;28;20018;-82
2021/12/05 17:00:43;;;;;;;8.95;5.30;;;0.40;99.90;;;;;;5033171;28;20064;-83
2021/12/05 17:03:09;;;;;;;12.30;5.80;;;0.40;99.90;;;;;;5033630;28;20497;-82
2021/12/05 17:05:38;;;;;;;13.13;6.97;;;0.40;99.90;;;;;;5033128;28;20085;-82
2021/12/05 17:08:15;;;;;;;14.15;6.72;;;0.40;99.90;;;;;;5026717;28;20060;-82
2021/12/05 17:10:50;;;;;;;17.30;7.72;;;0.30;99.90;;;;;;5013482;28;20068;-82
2021/12/05 17:13:20;;;;;;;14.20;7.68;;;0.30;99.90;;;;;;5013677;28;20498;-83
2021/12/05 17:15:58;;;;;;;17.53;7.93;;;0.30;99.90;;;;;;5023374;28;20029;-83
2021/12/05 17:18:32;;;;;;;18.27;8.20;;;0.30;99.90;;;;;;5017000;28;20120;-80
2021/12/05 17:21:03;;;;;;;16.67;8.65;;;0.30;99.90;;;;;;5013071;28;20034;-79
2021/12/05 17:23:34;;;;;;;15.13;8.52;;;0.20;99.90;;;;;;5034701;28;20435;-79
2021/12/05 17:26:52;;;;;;;13.73;8.05;;;0.20;99.90;;;;;;5051314;28;20037;-80
2021/12/05 17:29:23;;;;;;;13.55;8.20;;;0.20;99.90;;;;;;5032569;28;20033;-80
2021/12/05 17:31:51;;;;;;;11.02;7.03;;;0.20;99.90;;;;;;5032558;28;20519;-79
2021/12/05 17:34:23;;;;;;;14.05;7.43;;;0.20;99.90;;;;;;5033956;28;20026;-79
2021/12/05 17:36:56;;;;;;;;;;;0.20;99.90;;;;;;5032659;28;20021;-79
2021/12/05 17:39:28;;;;;;;16.80;8.65;;;0.20;99.90;;;;;;5049191;28;19905;-79
2021/12/05 17:41:58;;;;;;;21.77;11.63;;;0.20;99.90;;;;;;5023667;28;20160;-79
2021/12/05 17:44:25;;;;;;;26.23;13.95;;;0.20;99.90;;;;;;5032380;28;20033;-79
2021/12/05 17:46:54;;;;;;;27.25;14.02;;;0.20;99.90;;;;;;5032369;28;20033;-79
2021/12/05 17:49:22;;;;;;;27.23;12.98;;;0.20;99.90;;;;;;5034551;28;20029;-79
2021/12/05 17:51:48;;;;;;;24.70;12.48;;;0.10;99.90;;;;;;5037728;28;20124;-79
2021/12/05 17:54:36;;;;;;;24.98;12.93;;;0.10;99.90;;;;;;5037435;28;20101;-79
2021/12/05 17:57:08;;;;;;;21.05;11.30;;;0.10;99.90;;;;;;5023220;28;20128;-79
2021/12/05 18:04:59;;;;;;;21.05;11.30;;;0.10;99.90;;;;;;5032596;28;20103;-79
2021/12/05 18:07:26;;;;;;;19.10;11.23;;;0.20;99.90;;;;;;5017660;28;20022;-79
2021/12/05 18:09:51;;;;;;;25.40;12.95;;;0.10;99.90;;;;;;5017732;28;20109;-80
2021/12/05 18:12:31;;;;;;;24.30;13.00;;;0.10;99.90;;;;;;5022671;28;20100;-80
2021/12/05 18:14:57;;;;;;;21.77;11.70;;;0.10;99.90;;;;;;5027961;28;20033;-79
2021/12/05 18:17:23;;;;;;;22.75;10.57;;;0.10;99.90;;;;;;5016276;28;20026;-79
2021/12/05 18:19:48;;;;;;;11.98;6.43;;;0.10;99.90;;;;;;5019690;28;20026;-79
2021/12/05 18:22:14;;;;;;;12.10;5.85;;;0.10;99.90;;;;;;5031592;28;20021;-80
2021/12/05 18:24:43;;;;;;;14.35;6.78;;;0.00;99.90;;;;;;5032943;28;20036;-79
2021/12/05 18:27:09;;;;;;;12.27;6.35;;;0.00;99.90;;;;;;5038148;28;20032;-79
2021/12/05 18:29:35;;;;;;;15.00;7.22;;;0.00;99.90;;;;;;5036691;28;20018;-81
2021/12/05 18:32:01;;;;;;;18.15;7.20;;;0.00;99.90;;;;;;5036036;28;20432;-82
2021/12/05 18:34:29;;;;;;;13.63;7.68;;;-0.10;99.90;;;;;;5016039;28;20037;-81
2021/12/05 18:37:00;;;;;;;13.13;7.10;;;-0.10;99.90;;;;;;5020571;28;20160;-81
2021/12/05 18:39:29;;;;;;;;;;;-0.10;99.90;;;;;;5016419;28;20025;-83
2021/12/05 18:42:02;;;;;;;18.13;8.23;;;-0.10;99.90;;;;;;5014686;28;19905;-82
2021/12/05 18:44:30;;;;;;;17.25;8.43;;;-0.10;99.90;;;;;;5033627;28;20028;-82
2021/12/05 18:46:57;;;;;;;15.98;8.02;;;0.00;99.90;;;;;;5034268;28;20026;-82
2021/12/05 18:49:27;;;;;;;15.07;8.02;;;0.00;99.90;;;;;;5034336;28;20093;-82
2021/12/05 18:51:53;;;;;;;17.23;8.00;;;0.00;99.90;;;;;;5017583;28;20117;-82
2021/12/05 18:54:19;;;;;;;16.63;9.07;;;0.00;99.90;;;;;;5014432;28;20018;-82